PWSweather.com
Personal Weather Stations
Station Observations
RRFWEATHER
Rail Road Flat, Rail Road Flat, CA 95248

Rail Road FlatRail Road Flat, CA 95248

Lat: 38.306238, Lon: -120.514548

Elevation: 2808

Station Type: Oregon Scientific WMR-968

http://weather.railroadflat.org

Latest ConditionsUpdated 6:05:47 PM GMT Saturday, Aug 1, 2015
Currently Today's Max Today's Min Today's Average
Temperature 87.1°F30.6°C 92.8°F33.8°C 65.3°F18.5°C 76.0°F24.4°C
Dew Point 53.7°F12.1°C 63.9°F17.7°C 42.7°F5.9°C 56.8°F13.8°C
Winds Calm Calm 6.3 mph S10.1 kmh S - 0.5 mph 0.8 kmh
Wind Gusts 5.4 mph8.7 kmh 7.6 mph12.2 kmh - -
Humidity 32% 90% 18% 56%
Pressure 30.00 in1015.9 mb 30.03 in1016.9 mb 29.97 in1014.9 mb -
Hour Temp Dew Point Humidity Winds Wind Gusts Pressure Precip Precip Rate Daily Precip Total
06:05 PM 87.1°F30.6°C 53.7°F12.1°C 32% Calm Calm 5.4 mph8.7 kmh 30.00 in1015.9 mb 0.00 in0.0 mm 0.00 in0.0 mm 0.00 in0.0 mm
06:00 PM 86.4°F30.2°C 53.1°F11.7°C 32% 4.0 mph SSW6.4 kmh SSW 4.0 mph6.4 kmh 30.00 in1015.9 mb 0.00 in0.0 mm 0.00 in0.0 mm 0.00 in0.0 mm
05:55 PM 85.8°F29.9°C 52.6°F11.4°C 32% 6.3 mph S10.1 kmh S 6.3 mph10.1 kmh 30.00 in1015.9 mb 0.00 in0.0 mm 0.00 in0.0 mm 0.00 in0.0 mm
05:50 PM 85.3°F29.6°C 52.1°F11.2°C 32% 5.8 mph SW9.3 kmh SW 5.8 mph9.3 kmh 30.00 in1015.9 mb 0.00 in0.0 mm 0.00 in0.0 mm 0.00 in0.0 mm
05:45 PM 84.6°F29.2°C 54.7°F12.6°C 36% 3.6 mph S5.8 kmh S 5.8 mph9.3 kmh 30.00 in1015.9 mb 0.00 in0.0 mm 0.00 in0.0 mm 0.00 in0.0 mm
05:40 PM 84.6°F29.2°C 54.7°F12.6°C 36% 3.6 mph N5.8 kmh N 3.6 mph5.8 kmh 30.00 in1015.9 mb 0.00 in0.0 mm 0.00 in0.0 mm 0.00 in0.0 mm
05:35 PM 84.4°F29.1°C 54.5°F12.5°C 36% 2.7 mph ESE4.3 kmh ESE 7.6 mph12.2 kmh 30.00 in1015.9 mb 0.00 in0.0 mm 0.00 in0.0 mm 0.00 in0.0 mm
05:30 PM 84.2°F29.0°C 54.4°F12.4°C 36% 2.2 mph S3.5 kmh S 7.6 mph12.2 kmh 30.00 in1015.9 mb 0.00 in0.0 mm 0.00 in0.0 mm 0.00 in0.0 mm
05:25 PM 84.2°F29.0°C 54.4°F12.4°C 36% 3.1 mph ENE5.0 kmh ENE 6.3 mph10.1 kmh 30.00 in1015.9 mb 0.00 in0.0 mm 0.00 in0.0 mm 0.00 in0.0 mm
05:20 PM 84.4°F29.1°C 54.5°F12.5°C 36% 3.6 mph WSW5.8 kmh WSW 6.3 mph10.1 kmh 30.00 in1015.9 mb 0.00 in0.0 mm 0.00 in0.0 mm 0.00 in0.0 mm
05:15 PM 84.4°F29.1°C 54.5°F12.5°C 36% 5.8 mph SSE9.3 kmh SSE 6.3 mph10.1 kmh 30.00 in1015.9 mb 0.00 in0.0 mm 0.00 in0.0 mm 0.00 in0.0 mm
05:10 PM 83.8°F28.8°C 55.6°F13.1°C 38% Calm Calm 6.3 mph10.1 kmh 30.00 in1015.9 mb 0.00 in0.0 mm 0.00 in0.0 mm 0.00 in0.0 mm
05:05 PM 83.3°F28.5°C 55.1°F12.8°C 38% 2.7 mph WSW4.3 kmh WSW 6.3 mph10.1 kmh 30.00 in1015.9 mb 0.00 in0.0 mm 0.00 in0.0 mm 0.00 in0.0 mm
05:00 PM 83.1°F28.4°C 54.9°F12.7°C 38% 3.1 mph SSW5.0 kmh SSW 6.3 mph10.1 kmh 30.00 in1015.9 mb 0.00 in0.0 mm 0.00 in0.0 mm 0.00 in0.0 mm
04:55 PM 83.3°F28.5°C 55.1°F12.8°C 38% 4.0 mph SW6.4 kmh SW 6.7 mph10.8 kmh 30.00 in1015.9 mb 0.00 in0.0 mm 0.00 in0.0 mm 0.00 in0.0 mm
04:50 PM 83.3°F28.5°C 55.1°F12.8°C 38% 2.7 mph S4.3 kmh S 5.4 mph8.7 kmh 30.00 in1015.9 mb 0.00 in0.0 mm 0.00 in0.0 mm 0.00 in0.0 mm
04:45 PM 82.9°F28.3°C 54.8°F12.7°C 38% Calm Calm 5.4 mph8.7 kmh 30.00 in1015.9 mb 0.00 in0.0 mm 0.00 in0.0 mm 0.00 in0.0 mm
04:40 PM 83.1°F28.4°C 54.9°F12.7°C 38% 4.0 mph S6.4 kmh S 4.0 mph6.4 kmh 30.00 in1015.9 mb 0.00 in0.0 mm 0.00 in0.0 mm 0.00 in0.0 mm
04:35 PM 83.3°F28.5°C 55.1°F12.8°C 38% 5.4 mph SW8.7 kmh SW 6.3 mph10.1 kmh 30.00 in1015.9 mb 0.00 in0.0 mm 0.00 in0.0 mm 0.00 in0.0 mm
04:30 PM 83.5°F28.6°C 55.2°F12.9°C 38% 3.6 mph SW5.8 kmh SW 6.3 mph10.1 kmh 30.00 in1015.9 mb 0.00 in0.0 mm 0.00 in0.0 mm 0.00 in0.0 mm
04:25 PM 83.3°F28.5°C 55.1°F12.8°C 38% Calm Calm 6.3 mph10.1 kmh 30.00 in1015.9 mb 0.00 in0.0 mm 0.00 in0.0 mm 0.00 in0.0 mm
04:20 PM 83.1°F28.4°C 54.9°F12.7°C 38% 3.6 mph S5.8 kmh S 6.3 mph10.1 kmh 30.00 in1015.9 mb 0.00 in0.0 mm 0.00 in0.0 mm 0.00 in0.0 mm
04:15 PM 82.8°F28.2°C 54.6°F12.6°C 38% Calm Calm 4.0 mph6.4 kmh 30.00 in1015.9 mb 0.00 in0.0 mm 0.00 in0.0 mm 0.00 in0.0 mm
04:10 PM 82.4°F28.0°C 54.3°F12.4°C 38% Calm Calm 4.0 mph6.4 kmh 30.00 in1015.9 mb 0.00 in0.0 mm 0.00 in0.0 mm 0.00 in0.0 mm
04:05 PM 82.0°F27.8°C 55.4°F13.0°C 40% 2.2 mph SW3.5 kmh SW 3.6 mph5.8 kmh 30.03 in1016.9 mb 0.00 in0.0 mm 0.00 in0.0 mm 0.00 in0.0 mm
04:00 PM 81.7°F27.6°C 55.0°F12.8°C 40% Calm Calm -- 30.03 in1016.9 mb 0.00 in0.0 mm 0.00 in0.0 mm 0.00 in0.0 mm
03:55 PM 81.3°F27.4°C 54.7°F12.6°C 40% Calm Calm 6.3 mph10.1 kmh 30.03 in1016.9 mb 0.00 in0.0 mm 0.00 in0.0 mm 0.00 in0.0 mm
03:50 PM 80.8°F27.1°C 54.2°F12.3°C 40% 2.2 mph S3.5 kmh S 6.3 mph10.1 kmh 30.03 in1016.9 mb 0.00 in0.0 mm 0.00 in0.0 mm 0.00 in0.0 mm
03:45 PM 80.2°F26.8°C 55.1°F12.8°C 42% Calm Calm 3.1 mph5.0 kmh 30.03 in1016.9 mb 0.00 in0.0 mm 0.00 in0.0 mm 0.00 in0.0 mm
03:40 PM 79.5°F26.4°C 54.4°F12.4°C 42% Calm Calm -- 30.03 in1016.9 mb 0.00 in0.0 mm 0.00 in0.0 mm 0.00 in0.0 mm
03:35 PM 78.6°F25.9°C 54.9°F12.7°C 44% Calm Calm 3.1 mph5.0 kmh 30.03 in1016.9 mb 0.00 in0.0 mm 0.00 in0.0 mm 0.00 in0.0 mm
03:30 PM 78.1°F25.6°C 54.4°F12.4°C 44% Calm Calm -- 30.03 in1016.9 mb 0.00 in0.0 mm 0.00 in0.0 mm 0.00 in0.0 mm
03:25 PM 77.5°F25.3°C 53.9°F12.2°C 44% Calm Calm -- 30.03 in1016.9 mb 0.00 in0.0 mm 0.00 in0.0 mm 0.00 in0.0 mm
03:20 PM 77.4°F25.2°C 55.0°F12.8°C 46% Calm Calm -- 30.03 in1016.9 mb 0.00 in0.0 mm 0.00 in0.0 mm 0.00 in0.0 mm
03:15 PM 77.2°F25.1°C 54.8°F12.7°C 46% Calm Calm -- 30.03 in1016.9 mb 0.00 in0.0 mm 0.00 in0.0 mm 0.00 in0.0 mm
03:10 PM 77.0°F25.0°C 54.7°F12.6°C 46% Calm Calm -- 30.03 in1016.9 mb 0.00 in0.0 mm 0.00 in0.0 mm 0.00 in0.0 mm
03:05 PM 76.6°F24.8°C 54.3°F12.4°C 46% Calm Calm -- 30.03 in1016.9 mb 0.00 in0.0 mm 0.00 in0.0 mm 0.00 in0.0 mm
03:00 PM 76.1°F24.5°C 53.8°F12.1°C 46% Calm Calm -- 30.03 in1016.9 mb 0.00 in0.0 mm 0.00 in0.0 mm 0.00 in0.0 mm
02:55 PM 75.9°F24.4°C 53.7°F12.1°C 46% Calm Calm -- 30.03 in1016.9 mb 0.00 in0.0 mm 0.00 in0.0 mm 0.00 in0.0 mm
02:50 PM 75.7°F24.3°C 54.7°F12.6°C 48% Calm Calm -- 30.03 in1016.9 mb 0.00 in0.0 mm 0.00 in0.0 mm 0.00 in0.0 mm
02:45 PM 75.2°F24.0°C 54.2°F12.3°C 48% Calm Calm -- 30.03 in1016.9 mb 0.00 in0.0 mm 0.00 in0.0 mm 0.00 in0.0 mm
02:40 PM 74.8°F23.8°C 53.9°F12.2°C 48% Calm Calm -- 30.03 in1016.9 mb 0.00 in0.0 mm 0.00 in0.0 mm 0.00 in0.0 mm
02:35 PM 74.7°F23.7°C 53.7°F12.1°C 48% Calm Calm -- 30.03 in1016.9 mb 0.00 in0.0 mm 0.00 in0.0 mm 0.00 in0.0 mm
02:30 PM 74.5°F23.6°C 53.5°F11.9°C 48% Calm Calm -- 30.03 in1016.9 mb 0.00 in0.0 mm 0.00 in0.0 mm 0.00 in0.0 mm
02:25 PM 74.3°F23.5°C 52.2°F11.2°C 46% Calm Calm -- 30.03 in1016.9 mb 0.00 in0.0 mm 0.00 in0.0 mm 0.00 in0.0 mm
02:20 PM 74.5°F23.6°C 52.4°F11.3°C 46% Calm Calm -- 30.03 in1016.9 mb 0.00 in0.0 mm 0.00 in0.0 mm 0.00 in0.0 mm
02:15 PM 74.5°F23.6°C 52.4°F11.3°C 46% Calm Calm -- 30.03 in1016.9 mb 0.00 in0.0 mm 0.00 in0.0 mm 0.00 in0.0 mm
02:10 PM 74.5°F23.6°C 53.5°F11.9°C 48% Calm Calm -- 30.03 in1016.9 mb 0.00 in0.0 mm 0.00 in0.0 mm 0.00 in0.0 mm
02:05 PM 74.3°F23.5°C 53.4°F11.9°C 48% Calm Calm -- 30.00 in1015.9 mb 0.00 in0.0 mm 0.00 in0.0 mm 0.00 in0.0 mm
02:00 PM 74.1°F23.4°C 53.2°F11.8°C 48% Calm Calm -- 30.00 in1015.9 mb 0.00 in0.0 mm 0.00 in0.0 mm 0.00 in0.0 mm
01:55 PM 73.9°F23.3°C 51.9°F11.1°C 46% Calm Calm -- 30.00 in1015.9 mb 0.00 in0.0 mm 0.00 in0.0 mm 0.00 in0.0 mm
01:50 PM 73.9°F23.3°C 53.0°F11.7°C 48% Calm Calm -- 30.00 in1015.9 mb 0.00 in0.0 mm 0.00 in0.0 mm 0.00 in0.0 mm
01:45 PM 73.9°F23.3°C 51.9°F11.1°C 46% Calm Calm -- 30.00 in1015.9 mb 0.00 in0.0 mm 0.00 in0.0 mm 0.00 in0.0 mm
01:40 PM 73.9°F23.3°C 51.9°F11.1°C 46% Calm Calm -- 30.00 in1015.9 mb 0.00 in0.0 mm 0.00 in0.0 mm 0.00 in0.0 mm
01:35 PM 74.1°F23.4°C 52.0°F11.1°C 46% Calm Calm -- 30.00 in1015.9 mb 0.00 in0.0 mm 0.00 in0.0 mm 0.00 in0.0 mm
01:30 PM 74.3°F23.5°C 52.2°F11.2°C 46% Calm Calm -- 30.00 in1015.9 mb 0.00 in0.0 mm 0.00 in0.0 mm 0.00 in0.0 mm
01:25 PM 74.3°F23.5°C 52.2°F11.2°C 46% Calm Calm -- 30.00 in1015.9 mb 0.00 in0.0 mm 0.00 in0.0 mm 0.00 in0.0 mm
01:20 PM 74.5°F23.6°C 52.4°F11.3°C 46% Calm Calm -- 30.00 in1015.9 mb 0.00 in0.0 mm 0.00 in0.0 mm 0.00 in0.0 mm
01:15 PM 74.3°F23.5°C 53.4°F11.9°C 48% Calm Calm 3.1 mph5.0 kmh 30.00 in1015.9 mb 0.00 in0.0 mm 0.00 in0.0 mm 0.00 in0.0 mm
01:10 PM 73.9°F23.3°C 53.0°F11.7°C 48% Calm Calm 3.1 mph5.0 kmh 30.00 in1015.9 mb 0.00 in0.0 mm 0.00 in0.0 mm 0.00 in0.0 mm
01:05 PM 73.4°F23.0°C 53.7°F12.1°C 50% 2.7 mph N4.3 kmh N 3.1 mph5.0 kmh 30.00 in1015.9 mb 0.00 in0.0 mm 0.00 in0.0 mm 0.00 in0.0 mm
01:00 PM 73.0°F22.8°C 54.4°F12.4°C 52% 2.2 mph N3.5 kmh N 2.2 mph3.5 kmh 30.00 in1015.9 mb 0.00 in0.0 mm 0.00 in0.0 mm 0.00 in0.0 mm
12:55 PM 72.5°F22.5°C 55.9°F13.3°C 56% Calm Calm 2.7 mph4.3 kmh 30.00 in1015.9 mb 0.00 in0.0 mm 0.00 in0.0 mm 0.00 in0.0 mm
12:50 PM 72.0°F22.2°C 57.3°F14.1°C 60% Calm Calm 2.7 mph4.3 kmh 30.00 in1015.9 mb 0.00 in0.0 mm 0.00 in0.0 mm 0.00 in0.0 mm
12:45 PM 71.2°F21.8°C 58.5°F14.7°C 64% 2.7 mph NNW4.3 kmh NNW 2.7 mph4.3 kmh 30.00 in1015.9 mb 0.00 in0.0 mm 0.00 in0.0 mm 0.00 in0.0 mm
12:40 PM 70.7°F21.5°C 57.9°F14.4°C 64% Calm Calm -- 30.00 in1015.9 mb 0.00 in0.0 mm 0.00 in0.0 mm 0.00 in0.0 mm
12:35 PM 70.7°F21.5°C 57.9°F14.4°C 64% Calm Calm -- 30.00 in1015.9 mb 0.00 in0.0 mm 0.00 in0.0 mm 0.00 in0.0 mm
12:30 PM 70.3°F21.3°C 58.5°F14.7°C 66% Calm Calm -- 30.00 in1015.9 mb 0.00 in0.0 mm 0.00 in0.0 mm 0.00 in0.0 mm
12:25 PM 70.2°F21.2°C 58.3°F14.6°C 66% Calm Calm -- 30.00 in1015.9 mb 0.00 in0.0 mm 0.00 in0.0 mm 0.00 in0.0 mm
12:20 PM 70.0°F21.1°C 58.1°F14.5°C 66% Calm Calm -- 30.00 in1015.9 mb 0.00 in0.0 mm 0.00 in0.0 mm 0.00 in0.0 mm
12:15 PM 69.6°F20.9°C 58.6°F14.8°C 68% Calm Calm -- 30.00 in1015.9 mb 0.00 in0.0 mm 0.00 in0.0 mm 0.00 in0.0 mm
12:10 PM 69.3°F20.7°C 58.3°F14.6°C 68% Calm Calm -- 30.00 in1015.9 mb 0.00 in0.0 mm 0.00 in0.0 mm 0.00 in0.0 mm
12:05 PM 69.1°F20.6°C 58.9°F14.9°C 70% Calm Calm -- 30.00 in1015.9 mb 0.00 in0.0 mm 0.00 in0.0 mm 0.00 in0.0 mm
12:00 PM 68.9°F20.5°C 59.5°F15.3°C 72% Calm Calm -- 30.00 in1015.9 mb 0.00 in0.0 mm 0.00 in0.0 mm 0.00 in0.0 mm
11:55 AM 68.7°F20.4°C 59.3°F15.2°C 72% Calm Calm -- 30.00 in1015.9 mb 0.00 in0.0 mm 0.00 in0.0 mm 0.00 in0.0 mm
11:50 AM 68.7°F20.4°C 59.3°F15.2°C 72% Calm Calm -- 30.00 in1015.9 mb 0.00 in0.0 mm 0.00 in0.0 mm 0.00 in0.0 mm
11:45 AM 68.9°F20.5°C 58.7°F14.8°C 70% Calm Calm -- 30.00 in1015.9 mb 0.00 in0.0 mm 0.00 in0.0 mm 0.00 in0.0 mm
11:40 AM 69.1°F20.6°C 58.9°F14.9°C 70% Calm Calm -- 30.00 in1015.9 mb 0.00 in0.0 mm 0.00 in0.0 mm 0.00 in0.0 mm
11:35 AM 69.3°F20.7°C 59.1°F15.1°C 70% Calm Calm -- 30.00 in1015.9 mb 0.00 in0.0 mm 0.00 in0.0 mm 0.00 in0.0 mm
11:30 AM 69.4°F20.8°C 59.2°F15.1°C 70% Calm Calm -- 30.00 in1015.9 mb 0.00 in0.0 mm 0.00 in0.0 mm 0.00 in0.0 mm
11:25 AM 69.4°F20.8°C 59.2°F15.1°C 70% Calm Calm -- 30.00 in1015.9 mb 0.00 in0.0 mm 0.00 in0.0 mm 0.00 in0.0 mm
11:20 AM 69.6°F20.9°C 59.4°F15.2°C 70% Calm Calm -- 30.00 in1015.9 mb 0.00 in0.0 mm 0.00 in0.0 mm 0.00 in0.0 mm
11:15 AM 69.6°F20.9°C 60.2°F15.7°C 72% Calm Calm -- 30.00 in1015.9 mb 0.00 in0.0 mm 0.00 in0.0 mm 0.00 in0.0 mm
11:11 AM 69.4°F20.8°C 60.0°F15.6°C 72% Calm Calm -- 30.00 in1015.9 mb 0.00 in0.0 mm 0.00 in0.0 mm 0.00 in0.0 mm
11:05 AM 69.3°F20.7°C 59.9°F15.5°C 72% Calm Calm -- 29.97 in1014.9 mb 0.00 in0.0 mm 0.00 in0.0 mm 0.00 in0.0 mm
11:01 AM 68.9°F20.5°C 60.3°F15.7°C 74% Calm Calm -- 29.97 in1014.9 mb 0.00 in0.0 mm 0.00 in0.0 mm 0.00 in0.0 mm
10:55 AM 68.7°F20.4°C 61.6°F16.4°C 78% Calm Calm -- 29.97 in1014.9 mb 0.00 in0.0 mm 0.00 in0.0 mm 0.00 in0.0 mm
10:50 AM 68.4°F20.2°C 62.7°F17.1°C 82% Calm Calm -- 29.97 in1014.9 mb 0.00 in0.0 mm 0.00 in0.0 mm 0.00 in0.0 mm
10:45 AM 68.2°F20.1°C 62.5°F16.9°C 82% Calm Calm -- 29.97 in1014.9 mb 0.00 in0.0 mm 0.00 in0.0 mm 0.00 in0.0 mm
10:40 AM 68.0°F20.0°C 63.0°F17.2°C 84% Calm Calm -- 29.97 in1014.9 mb 0.00 in0.0 mm 0.00 in0.0 mm 0.00 in0.0 mm
10:35 AM 67.8°F19.9°C 62.8°F17.1°C 84% Calm Calm -- 30.00 in1015.9 mb 0.00 in0.0 mm 0.00 in0.0 mm 0.00 in0.0 mm
10:30 AM 67.6°F19.8°C 62.6°F17.0°C 84% Calm Calm -- 30.00 in1015.9 mb 0.00 in0.0 mm 0.00 in0.0 mm 0.00 in0.0 mm
10:25 AM 67.5°F19.7°C 62.5°F16.9°C 84% Calm Calm -- 30.00 in1015.9 mb 0.00 in0.0 mm 0.00 in0.0 mm 0.00 in0.0 mm
10:20 AM 67.1°F19.5°C 62.1°F16.7°C 84% Calm Calm -- 29.97 in1014.9 mb 0.00 in0.0 mm 0.00 in0.0 mm 0.00 in0.0 mm
10:15 AM 66.7°F19.3°C 62.4°F16.9°C 86% Calm Calm -- 29.97 in1014.9 mb 0.00 in0.0 mm 0.00 in0.0 mm 0.00 in0.0 mm
10:10 AM 66.4°F19.1°C 62.1°F16.7°C 86% Calm Calm -- 29.97 in1014.9 mb 0.00 in0.0 mm 0.00 in0.0 mm 0.00 in0.0 mm
10:05 AM 65.8°F18.8°C 62.8°F17.1°C 90% Calm Calm -- 29.97 in1014.9 mb 0.00 in0.0 mm 0.00 in0.0 mm 0.00 in0.0 mm
10:00 AM 65.7°F18.7°C 62.7°F17.1°C 90% Calm Calm -- 29.97 in1014.9 mb 0.00 in0.0 mm 0.00 in0.0 mm 0.00 in0.0 mm
09:56 AM 65.7°F18.7°C 62.7°F17.1°C 90% Calm Calm -- 29.97 in1014.9 mb 0.00 in0.0 mm 0.00 in0.0 mm 0.00 in0.0 mm
09:50 AM 65.5°F18.6°C 62.5°F16.9°C 90% Calm Calm -- 29.97 in1014.9 mb 0.00 in0.0 mm 0.00 in0.0 mm 0.00 in0.0 mm
09:45 AM 65.5°F18.6°C 62.5°F16.9°C 90% Calm Calm -- 29.97 in1014.9 mb 0.00 in0.0 mm 0.00 in0.0 mm 0.00 in0.0 mm
09:40 AM 65.3°F18.5°C 62.3°F16.8°C 90% Calm Calm -- 29.97 in1014.9 mb 0.00 in0.0 mm 0.00 in0.0 mm 0.00 in0.0 mm
09:35 AM 65.5°F18.6°C 61.8°F16.6°C 88% Calm Calm -- 29.97 in1014.9 mb 0.00 in0.0 mm 0.00 in0.0 mm 0.00 in0.0 mm
09:30 AM 65.5°F18.6°C 61.2°F16.2°C 86% Calm Calm -- 29.97 in1014.9 mb 0.00 in0.0 mm 0.00 in0.0 mm 0.00 in0.0 mm
09:25 AM 65.8°F18.8°C 61.5°F16.4°C 86% Calm Calm -- 29.97 in1014.9 mb 0.00 in0.0 mm 0.00 in0.0 mm 0.00 in0.0 mm
09:20 AM 66.0°F18.9°C 61.1°F16.2°C 84% Calm Calm -- 29.97 in1014.9 mb 0.00 in0.0 mm 0.00 in0.0 mm 0.00 in0.0 mm
09:15 AM 66.2°F19.0°C 61.2°F16.2°C 84% Calm Calm -- 29.97 in1014.9 mb 0.00 in0.0 mm 0.00 in0.0 mm 0.00 in0.0 mm
09:10 AM 66.2°F19.0°C 60.6°F15.9°C 82% Calm Calm -- 29.97 in1014.9 mb 0.00 in0.0 mm 0.00 in0.0 mm 0.00 in0.0 mm
09:05 AM 66.2°F19.0°C 59.2°F15.1°C 78% Calm Calm -- 29.97 in1014.9 mb 0.00 in0.0 mm 0.00 in0.0 mm 0.00 in0.0 mm
09:00 AM 66.4°F19.1°C 58.6°F14.8°C 76% Calm Calm -- 29.97 in1014.9 mb 0.00 in0.0 mm 0.00 in0.0 mm 0.00 in0.0 mm
08:55 AM 66.6°F19.2°C 58.0°F14.4°C 74% Calm Calm -- 29.97 in1014.9 mb 0.00 in0.0 mm 0.00 in0.0 mm 0.00 in0.0 mm
08:50 AM 66.7°F19.3°C 58.9°F14.9°C 76% Calm Calm -- 29.97 in1014.9 mb 0.00 in0.0 mm 0.00 in0.0 mm 0.00 in0.0 mm
08:45 AM 66.9°F19.4°C 59.8°F15.4°C 78% Calm Calm -- 29.97 in1014.9 mb 0.00 in0.0 mm 0.00 in0.0 mm 0.00 in0.0 mm
08:40 AM 67.1°F19.5°C 60.0°F15.6°C 78% Calm Calm -- 29.97 in1014.9 mb 0.00 in0.0 mm 0.00 in0.0 mm 0.00 in0.0 mm
08:35 AM 67.3°F19.6°C 59.5°F15.3°C 76% Calm Calm -- 29.97 in1014.9 mb 0.00 in0.0 mm 0.00 in0.0 mm 0.00 in0.0 mm
08:30 AM 67.5°F19.7°C 57.3°F14.1°C 70% Calm Calm -- 29.97 in1014.9 mb 0.00 in0.0 mm 0.00 in0.0 mm 0.00 in0.0 mm
08:25 AM 67.5°F19.7°C 56.5°F13.6°C 68% Calm Calm -- 29.97 in1014.9 mb 0.00 in0.0 mm 0.00 in0.0 mm 0.00 in0.0 mm
08:20 AM 67.5°F19.7°C 57.3°F14.1°C 70% Calm Calm -- 30.00 in1015.9 mb 0.00 in0.0 mm 0.00 in0.0 mm 0.00 in0.0 mm
08:15 AM 67.5°F19.7°C 56.5°F13.6°C 68% Calm Calm -- 30.00 in1015.9 mb 0.00 in0.0 mm 0.00 in0.0 mm 0.00 in0.0 mm
08:10 AM 67.5°F19.7°C 58.9°F14.9°C 74% Calm Calm -- 30.00 in1015.9 mb 0.00 in0.0 mm 0.00 in0.0 mm 0.00 in0.0 mm
08:05 AM 67.6°F19.8°C 62.0°F16.7°C 82% Calm Calm -- 30.00 in1015.9 mb 0.00 in0.0 mm 0.00 in0.0 mm 0.00 in0.0 mm
08:00 AM 67.6°F19.8°C 62.0°F16.7°C 82% Calm Calm -- 30.00 in1015.9 mb 0.00 in0.0 mm 0.00 in0.0 mm 0.00 in0.0 mm
07:55 AM 67.6°F19.8°C 62.6°F17.0°C 84% Calm Calm -- 30.00 in1015.9 mb 0.00 in0.0 mm 0.00 in0.0 mm 0.00 in0.0 mm
07:50 AM 67.8°F19.9°C 63.5°F17.5°C 86% Calm Calm -- 30.00 in1015.9 mb 0.00 in0.0 mm 0.00 in0.0 mm 0.00 in0.0 mm
07:45 AM 68.0°F20.0°C 63.0°F17.2°C 84% Calm Calm -- 30.00 in1015.9 mb 0.00 in0.0 mm 0.00 in0.0 mm 0.00 in0.0 mm
07:40 AM 68.2°F20.1°C 63.2°F17.3°C 84% Calm Calm -- 30.00 in1015.9 mb 0.00 in0.0 mm 0.00 in0.0 mm 0.00 in0.0 mm
07:35 AM 68.4°F20.2°C 62.7°F17.1°C 82% Calm Calm -- 30.00 in1015.9 mb 0.00 in0.0 mm 0.00 in0.0 mm 0.00 in0.0 mm
07:30 AM 68.7°F20.4°C 63.0°F17.2°C 82% Calm Calm -- 30.00 in1015.9 mb 0.00 in0.0 mm 0.00 in0.0 mm 0.00 in0.0 mm
07:25 AM 68.7°F20.4°C 63.7°F17.6°C 84% Calm Calm -- 30.00 in1015.9 mb 0.00 in0.0 mm 0.00 in0.0 mm 0.00 in0.0 mm
07:20 AM 68.9°F20.5°C 63.9°F17.7°C 84% Calm Calm -- 30.00 in1015.9 mb 0.00 in0.0 mm 0.00 in0.0 mm 0.00 in0.0 mm
07:15 AM 68.9°F20.5°C 63.2°F17.3°C 82% Calm Calm -- 30.00 in1015.9 mb 0.00 in0.0 mm 0.00 in0.0 mm 0.00 in0.0 mm
07:10 AM 69.1°F20.6°C 62.7°F17.1°C 80% Calm Calm -- 30.00 in1015.9 mb 0.00 in0.0 mm 0.00 in0.0 mm 0.00 in0.0 mm
07:05 AM 69.3°F20.7°C 62.8°F17.1°C 80% Calm Calm -- 30.00 in1015.9 mb 0.00 in0.0 mm 0.00 in0.0 mm 0.00 in0.0 mm
07:01 AM 69.4°F20.8°C 63.0°F17.2°C 80% Calm Calm -- 30.00 in1015.9 mb 0.00 in0.0 mm 0.00 in0.0 mm 0.00 in0.0 mm
06:55 AM 69.6°F20.9°C 63.2°F17.3°C 80% Calm Calm -- 30.00 in1015.9 mb 0.00 in0.0 mm 0.00 in0.0 mm 0.00 in0.0 mm
06:50 AM 70.0°F21.1°C 62.8°F17.1°C 78% Calm Calm -- 30.00 in1015.9 mb 0.00 in0.0 mm 0.00 in0.0 mm 0.00 in0.0 mm
06:45 AM 70.0°F21.1°C 62.1°F16.7°C 76% Calm Calm -- 30.00 in1015.9 mb 0.00 in0.0 mm 0.00 in0.0 mm 0.00 in0.0 mm
06:41 AM 70.0°F21.1°C 62.8°F17.1°C 78% Calm Calm -- 30.00 in1015.9 mb 0.00 in0.0 mm 0.00 in0.0 mm 0.00 in0.0 mm
06:30 AM 70.3°F21.3°C 61.7°F16.5°C 74% Calm Calm -- 30.00 in1015.9 mb 0.00 in0.0 mm 0.00 in0.0 mm 0.00 in0.0 mm
06:26 AM 70.3°F21.3°C 62.4°F16.9°C 76% Calm Calm -- 30.00 in1015.9 mb 0.00 in0.0 mm 0.00 in0.0 mm 0.00 in0.0 mm
06:20 AM 70.3°F21.3°C 62.4°F16.9°C 76% Calm Calm -- 29.97 in1014.9 mb 0.00 in0.0 mm 0.00 in0.0 mm 0.00 in0.0 mm
06:15 AM 70.2°F21.2°C 62.3°F16.8°C 76% Calm Calm -- 29.97 in1014.9 mb 0.00 in0.0 mm 0.00 in0.0 mm 0.00 in0.0 mm
06:10 AM 70.2°F21.2°C 61.5°F16.4°C 74% Calm Calm -- 29.97 in1014.9 mb 0.00 in0.0 mm 0.00 in0.0 mm 0.00 in0.0 mm
06:05 AM 70.2°F21.2°C 61.5°F16.4°C 74% Calm Calm -- 29.97 in1014.9 mb 0.00 in0.0 mm 0.00 in0.0 mm 0.00 in0.0 mm
06:00 AM 70.5°F21.4°C 61.8°F16.6°C 74% Calm Calm -- 29.97 in1014.9 mb 0.00 in0.0 mm 0.00 in0.0 mm 0.00 in0.0 mm
05:55 AM 70.7°F21.5°C 61.2°F16.2°C 72% Calm Calm -- 29.97 in1014.9 mb 0.00 in0.0 mm 0.00 in0.0 mm 0.00 in0.0 mm
05:50 AM 70.9°F21.6°C 61.4°F16.3°C 72% Calm Calm -- 29.97 in1014.9 mb 0.00 in0.0 mm 0.00 in0.0 mm 0.00 in0.0 mm
05:45 AM 71.2°F21.8°C 61.8°F16.6°C 72% Calm Calm -- 29.97 in1014.9 mb 0.00 in0.0 mm 0.00 in0.0 mm 0.00 in0.0 mm
05:40 AM 71.2°F21.8°C 61.0°F16.1°C 70% Calm Calm -- 29.97 in1014.9 mb 0.00 in0.0 mm 0.00 in0.0 mm 0.00 in0.0 mm
05:35 AM 71.4°F21.9°C 61.1°F16.2°C 70% Calm Calm -- 30.00 in1015.9 mb 0.00 in0.0 mm 0.00 in0.0 mm 0.00 in0.0 mm
05:30 AM 71.8°F22.1°C 60.7°F15.9°C 68% Calm Calm -- 30.00 in1015.9 mb 0.00 in0.0 mm 0.00 in0.0 mm 0.00 in0.0 mm
05:25 AM 72.0°F22.2°C 60.8°F16.0°C 68% Calm Calm -- 30.00 in1015.9 mb 0.00 in0.0 mm 0.00 in0.0 mm 0.00 in0.0 mm
05:20 AM 72.3°F22.4°C 61.2°F16.2°C 68% Calm Calm -- 30.00 in1015.9 mb 0.00 in0.0 mm 0.00 in0.0 mm 0.00 in0.0 mm
05:15 AM 72.5°F22.5°C 61.4°F16.3°C 68% Calm Calm -- 30.00 in1015.9 mb 0.00 in0.0 mm 0.00 in0.0 mm 0.00 in0.0 mm
05:10 AM 72.7°F22.6°C 61.5°F16.4°C 68% Calm Calm -- 30.00 in1015.9 mb 0.00 in0.0 mm 0.00 in0.0 mm 0.00 in0.0 mm
05:05 AM 72.9°F22.7°C 61.7°F16.5°C 68% Calm Calm -- 30.00 in1015.9 mb 0.00 in0.0 mm 0.00 in0.0 mm 0.00 in0.0 mm
05:00 AM 73.0°F22.8°C 61.0°F16.1°C 66% Calm Calm -- 30.00 in1015.9 mb 0.00 in0.0 mm 0.00 in0.0 mm 0.00 in0.0 mm
04:55 AM 73.2°F22.9°C 61.2°F16.2°C 66% Calm Calm -- 30.00 in1015.9 mb 0.00 in0.0 mm 0.00 in0.0 mm 0.00 in0.0 mm
04:50 AM 73.2°F22.9°C 61.2°F16.2°C 66% Calm Calm -- 29.97 in1014.9 mb 0.00 in0.0 mm 0.00 in0.0 mm 0.00 in0.0 mm
04:45 AM 73.4°F23.0°C 60.5°F15.8°C 64% Calm Calm -- 29.97 in1014.9 mb 0.00 in0.0 mm 0.00 in0.0 mm 0.00 in0.0 mm
04:40 AM 73.8°F23.2°C 60.8°F16.0°C 64% Calm Calm -- 29.97 in1014.9 mb 0.00 in0.0 mm 0.00 in0.0 mm 0.00 in0.0 mm
04:35 AM 74.1°F23.4°C 61.2°F16.2°C 64% Calm Calm -- 29.97 in1014.9 mb 0.00 in0.0 mm 0.00 in0.0 mm 0.00 in0.0 mm
04:30 AM 74.3°F23.5°C 61.4°F16.3°C 64% Calm Calm -- 29.97 in1014.9 mb 0.00 in0.0 mm 0.00 in0.0 mm 0.00 in0.0 mm
04:25 AM 74.7°F23.7°C 61.7°F16.5°C 64% Calm Calm -- 29.97 in1014.9 mb 0.00 in0.0 mm 0.00 in0.0 mm 0.00 in0.0 mm
04:20 AM 74.8°F23.8°C 61.9°F16.6°C 64% Calm Calm -- 29.97 in1014.9 mb 0.00 in0.0 mm 0.00 in0.0 mm 0.00 in0.0 mm
04:15 AM 75.2°F24.0°C 61.3°F16.3°C 62% Calm Calm -- 29.97 in1014.9 mb 0.00 in0.0 mm 0.00 in0.0 mm 0.00 in0.0 mm
04:10 AM 75.6°F24.2°C 61.6°F16.4°C 62% Calm Calm -- 29.97 in1014.9 mb 0.00 in0.0 mm 0.00 in0.0 mm 0.00 in0.0 mm
04:06 AM 75.9°F24.4°C 62.0°F16.7°C 62% Calm Calm -- 29.97 in1014.9 mb 0.00 in0.0 mm 0.00 in0.0 mm 0.00 in0.0 mm
04:00 AM 76.3°F24.6°C 61.4°F16.3°C 60% Calm Calm -- 29.97 in1014.9 mb 0.00 in0.0 mm 0.00 in0.0 mm 0.00 in0.0 mm
03:55 AM 76.8°F24.9°C 60.9°F16.1°C 58% Calm Calm -- 29.97 in1014.9 mb 0.00 in0.0 mm 0.00 in0.0 mm 0.00 in0.0 mm
03:50 AM 77.4°F25.2°C 60.5°F15.8°C 56% Calm Calm -- 29.97 in1014.9 mb 0.00 in0.0 mm 0.00 in0.0 mm 0.00 in0.0 mm
03:45 AM 77.7°F25.4°C 59.8°F15.4°C 54% Calm Calm -- 29.97 in1014.9 mb 0.00 in0.0 mm 0.00 in0.0 mm 0.00 in0.0 mm
03:40 AM 78.1°F25.6°C 59.0°F15.0°C 52% Calm Calm -- 29.97 in1014.9 mb 0.00 in0.0 mm 0.00 in0.0 mm 0.00 in0.0 mm
03:30 AM 79.0°F26.1°C 58.8°F14.9°C 50% Calm Calm -- 29.97 in1014.9 mb 0.00 in0.0 mm 0.00 in0.0 mm 0.00 in0.0 mm
03:25 AM 79.3°F26.3°C 58.0°F14.4°C 48% Calm Calm -- 29.97 in1014.9 mb 0.00 in0.0 mm 0.00 in0.0 mm 0.00 in0.0 mm
03:20 AM 79.7°F26.5°C 58.3°F14.6°C 48% Calm Calm -- 29.97 in1014.9 mb 0.00 in0.0 mm 0.00 in0.0 mm 0.00 in0.0 mm
03:15 AM 80.1°F26.7°C 57.4°F14.1°C 46% Calm Calm 3.6 mph5.8 kmh 29.97 in1014.9 mb 0.00 in0.0 mm 0.00 in0.0 mm 0.00 in0.0 mm
03:10 AM 80.6°F27.0°C 56.7°F13.7°C 44% 2.2 mph SW3.5 kmh SW 3.6 mph5.8 kmh 29.97 in1014.9 mb 0.00 in0.0 mm 0.00 in0.0 mm 0.00 in0.0 mm
03:05 AM 81.1°F27.3°C 55.9°F13.3°C 42% Calm Calm -- 29.97 in1014.9 mb 0.00 in0.0 mm 0.00 in0.0 mm 0.00 in0.0 mm
03:00 AM 81.7°F27.6°C 56.4°F13.6°C 42% Calm Calm -- 29.97 in1014.9 mb 0.00 in0.0 mm 0.00 in0.0 mm 0.00 in0.0 mm
02:55 AM 82.4°F28.0°C 55.7°F13.2°C 40% Calm Calm 4.5 mph7.2 kmh 29.97 in1014.9 mb 0.00 in0.0 mm 0.00 in0.0 mm 0.00 in0.0 mm
02:50 AM 82.9°F28.3°C 56.2°F13.4°C 40% Calm Calm 4.5 mph7.2 kmh 29.97 in1014.9 mb 0.00 in0.0 mm 0.00 in0.0 mm 0.00 in0.0 mm
02:45 AM 83.7°F28.7°C 55.4°F13.0°C 38% Calm Calm 4.5 mph7.2 kmh 29.97 in1014.9 mb 0.00 in0.0 mm 0.00 in0.0 mm 0.00 in0.0 mm
02:40 AM 84.4°F29.1°C 54.5°F12.5°C 36% Calm Calm 2.7 mph4.3 kmh 29.97 in1014.9 mb 0.00 in0.0 mm 0.00 in0.0 mm 0.00 in0.0 mm
02:35 AM 84.7°F29.3°C 54.9°F12.7°C 36% Calm Calm 2.7 mph4.3 kmh 29.97 in1014.9 mb 0.00 in0.0 mm 0.00 in0.0 mm 0.00 in0.0 mm
02:30 AM 85.3°F29.6°C 52.1°F11.2°C 32% Calm Calm 2.7 mph4.3 kmh 29.97 in1014.9 mb 0.00 in0.0 mm 0.00 in0.0 mm 0.00 in0.0 mm
02:25 AM 85.6°F29.8°C 52.4°F11.3°C 32% 2.7 mph W4.3 kmh W 2.7 mph4.3 kmh 29.97 in1014.9 mb 0.00 in0.0 mm 0.00 in0.0 mm 0.00 in0.0 mm
02:20 AM 86.0°F30.0°C 47.2°F8.4°C 26% Calm Calm -- 29.97 in1014.9 mb 0.00 in0.0 mm 0.00 in0.0 mm 0.00 in0.0 mm
02:15 AM 86.5°F30.3°C 47.6°F8.7°C 26% 3.1 mph WNW5.0 kmh WNW 5.4 mph8.7 kmh 29.97 in1014.9 mb 0.00 in0.0 mm 0.00 in0.0 mm 0.00 in0.0 mm
02:10 AM 86.9°F30.5°C 47.9°F8.8°C 26% 2.7 mph SW4.3 kmh SW 5.4 mph8.7 kmh 29.97 in1014.9 mb 0.00 in0.0 mm 0.00 in0.0 mm 0.00 in0.0 mm
02:05 AM 87.4°F30.8°C 48.4°F9.1°C 26% 3.1 mph SSW5.0 kmh SSW 5.4 mph8.7 kmh 29.97 in1014.9 mb 0.00 in0.0 mm 0.00 in0.0 mm 0.00 in0.0 mm
02:00 AM 87.8°F31.0°C 48.7°F9.3°C 26% Calm Calm -- 29.97 in1014.9 mb 0.00 in0.0 mm 0.00 in0.0 mm 0.00 in0.0 mm
01:55 AM 88.2°F31.2°C 49.0°F9.4°C 26% Calm Calm 4.0 mph6.4 kmh 29.97 in1014.9 mb 0.00 in0.0 mm 0.00 in0.0 mm 0.00 in0.0 mm
01:50 AM 88.5°F31.4°C 49.3°F9.6°C 26% Calm Calm 4.0 mph6.4 kmh 29.97 in1014.9 mb 0.00 in0.0 mm 0.00 in0.0 mm 0.00 in0.0 mm
01:45 AM 88.7°F31.5°C 49.5°F9.7°C 26% Calm Calm 4.0 mph6.4 kmh 29.97 in1014.9 mb 0.00 in0.0 mm 0.00 in0.0 mm 0.00 in0.0 mm
01:40 AM 88.9°F31.6°C 49.6°F9.8°C 26% 4.0 mph WSW6.4 kmh WSW 4.0 mph6.4 kmh 29.97 in1014.9 mb 0.00 in0.0 mm 0.00 in0.0 mm 0.00 in0.0 mm
01:35 AM 89.1°F31.7°C 49.8°F9.9°C 26% Calm Calm 4.0 mph6.4 kmh 29.97 in1014.9 mb 0.00 in0.0 mm 0.00 in0.0 mm 0.00 in0.0 mm
01:30 AM 89.2°F31.8°C 49.9°F9.9°C 26% Calm Calm -- 29.97 in1014.9 mb 0.00 in0.0 mm 0.00 in0.0 mm 0.00 in0.0 mm
01:25 AM 89.4°F31.9°C 50.1°F10.1°C 26% Calm Calm -- 29.97 in1014.9 mb 0.00 in0.0 mm 0.00 in0.0 mm 0.00 in0.0 mm
01:20 AM 90.1°F32.3°C 48.5°F9.2°C 24% Calm Calm -- 29.97 in1014.9 mb 0.00 in0.0 mm 0.00 in0.0 mm 0.00 in0.0 mm
01:15 AM 90.9°F32.7°C 49.1°F9.5°C 24% Calm Calm -- 29.97 in1014.9 mb 0.00 in0.0 mm 0.00 in0.0 mm 0.00 in0.0 mm
01:10 AM 91.2°F32.9°C 49.4°F9.7°C 24% Calm Calm -- 29.97 in1014.9 mb 0.00 in0.0 mm 0.00 in0.0 mm 0.00 in0.0 mm
01:05 AM 91.4°F33.0°C 49.6°F9.8°C 24% Calm Calm -- 29.97 in1014.9 mb 0.00 in0.0 mm 0.00 in0.0 mm 0.00 in0.0 mm
01:00 AM 92.1°F33.4°C 50.2°F10.1°C 24% Calm Calm -- 29.97 in1014.9 mb 0.00 in0.0 mm 0.00 in0.0 mm 0.00 in0.0 mm
12:55 AM 92.7°F33.7°C 50.6°F10.3°C 24% Calm Calm -- 29.97 in1014.9 mb 0.00 in0.0 mm 0.00 in0.0 mm 0.00 in0.0 mm
12:50 AM 92.8°F33.8°C 50.8°F10.4°C 24% Calm Calm -- 29.97 in1014.9 mb 0.00 in0.0 mm 0.00 in0.0 mm 0.00 in0.0 mm
12:45 AM 92.8°F33.8°C 50.8°F10.4°C 24% Calm Calm -- 29.97 in1014.9 mb 0.00 in0.0 mm 0.00 in0.0 mm 0.00 in0.0 mm
12:40 AM 92.5°F33.6°C 42.9°F6.1°C 18% Calm Calm -- 29.97 in1014.9 mb 0.00 in0.0 mm 0.00 in0.0 mm 0.00 in0.0 mm
12:35 AM 92.3°F33.5°C 42.7°F5.9°C 18% Calm Calm -- 29.97 in1014.9 mb 0.00 in0.0 mm 0.00 in0.0 mm 0.00 in0.0 mm
12:30 AM 92.5°F33.6°C 42.9°F6.1°C 18% Calm Calm -- 29.97 in1014.9 mb 0.00 in0.0 mm 0.00 in0.0 mm 0.00 in0.0 mm
12:25 AM 92.5°F33.6°C 42.9°F6.1°C 18% Calm Calm -- 29.97 in1014.9 mb 0.00 in0.0 mm 0.00 in0.0 mm 0.00 in0.0 mm
12:20 AM 92.7°F33.7°C 50.6°F10.3°C 24% Calm Calm -- 29.97 in1014.9 mb 0.00 in0.0 mm 0.00 in0.0 mm 0.00 in0.0 mm
12:15 AM 91.6°F33.1°C 49.7°F9.8°C 24% Calm Calm 4.9 mph7.9 kmh 29.97 in1014.9 mb 0.00 in0.0 mm 0.00 in0.0 mm 0.00 in0.0 mm
12:10 AM 90.5°F32.5°C 44.0°F6.7°C 20% Calm Calm 4.9 mph7.9 kmh 29.97 in1014.9 mb 0.00 in0.0 mm 0.00 in0.0 mm 0.00 in0.0 mm
12:05 AM 90.1°F32.3°C 43.7°F6.5°C 20% 3.1 mph W5.0 kmh W 4.9 mph7.9 kmh 29.97 in1014.9 mb 0.00 in0.0 mm 0.00 in0.0 mm 0.00 in0.0 mm
12:00 AM 90.0°F32.2°C 43.6°F6.4°C 20% Calm Calm -- 29.97 in1014.9 mb 0.00 in0.0 mm 0.00 in0.0 mm 0.00 in0.0 mm